createdAt,value
2019-02-09T00:01:35.559Z,79.84
2019-02-09T00:03:42.914Z,79.60
2019-02-09T00:05:50.419Z,79.21
2019-02-09T00:07:57.819Z,79.46
2019-02-09T00:10:05.216Z,79.32
2019-02-09T00:12:12.742Z,79.50
2019-02-09T00:14:20.092Z,79.44
2019-02-09T00:16:28.607Z,79.50
2019-02-09T00:18:35.969Z,79.81
2019-02-09T00:20:43.528Z,79.25
2019-02-09T00:22:50.808Z,79.30
2019-02-09T00:24:58.189Z,79.48
2019-02-09T00:27:05.752Z,78.89
2019-02-09T00:29:13.001Z,79.30
2019-02-09T00:31:20.445Z,79.75
2019-02-09T00:33:27.748Z,79.81
2019-02-09T00:35:35.128Z,79.92
2019-02-09T00:37:42.618Z,80.21
2019-02-09T00:39:50.181Z,79.85
2019-02-09T00:41:57.499Z,79.72
2019-02-09T00:44:04.923Z,80.01
2019-02-09T00:46:12.779Z,80.05
2019-02-09T00:48:20.166Z,79.72
2019-02-09T00:50:27.765Z,79.74
2019-02-09T00:52:35.259Z,80.20
2019-02-09T00:54:42.507Z,80.23
2019-02-09T00:56:49.853Z,80.53
2019-02-09T00:58:57.478Z,80.32
2019-02-09T01:01:04.941Z,80.59
2019-02-09T01:03:12.492Z,80.68
2019-02-09T01:05:22.686Z,80.63
2019-02-09T01:07:30.210Z,80.59
2019-02-09T01:09:37.640Z,80.66
2019-02-09T01:11:45.346Z,80.51
2019-02-09T01:13:52.694Z,80.31
2019-02-09T01:16:00.165Z,80.34
2019-02-09T01:18:07.946Z,79.90
2019-02-09T01:20:21.505Z,80.21
2019-02-09T01:22:29.032Z,80.02
2019-02-09T01:24:36.575Z,80.19
2019-02-09T01:26:43.972Z,80.56
2019-02-09T01:28:51.514Z,80.69
2019-02-09T01:30:58.861Z,80.14
2019-02-09T01:33:06.289Z,80.03
2019-02-09T01:35:14.079Z,80.32
2019-02-09T01:37:21.620Z,80.22
2019-02-09T01:39:29.113Z,80.09
2019-02-09T01:41:36.593Z,80.51
2019-02-09T01:43:43.994Z,80.54
2019-02-09T01:45:51.306Z,80.48
2019-02-09T01:47:58.590Z,80.52
2019-02-09T01:50:07.287Z,80.31
2019-02-09T01:52:14.647Z,80.22
2019-02-09T01:54:21.988Z,80.92
2019-02-09T01:56:29.430Z,80.68
2019-02-09T01:58:36.892Z,81.10
2019-02-09T02:00:44.349Z,81.20
2019-02-09T02:02:51.913Z,81.55
2019-02-09T02:04:59.447Z,81.50
2019-02-09T02:07:06.937Z,81.44
2019-02-09T02:09:14.452Z,81.31
2019-02-09T02:11:21.928Z,81.20
2019-02-09T02:13:29.439Z,81.23
2019-02-09T02:15:37.357Z,81.42
2019-02-09T02:17:44.862Z,81.11
2019-02-09T02:19:52.190Z,81.23
2019-02-09T02:21:59.612Z,81.06
2019-02-09T02:24:07.059Z,81.11
2019-02-09T02:26:17.963Z,81.12
2019-02-09T02:28:25.684Z,81.18
2019-02-09T02:30:35.791Z,81.01
2019-02-09T02:32:43.185Z,80.84
2019-02-09T02:34:50.711Z,81.03
2019-02-09T02:36:58.073Z,80.81
2019-02-09T02:39:07.978Z,80.90
2019-02-09T02:41:15.391Z,80.66
2019-02-09T02:43:22.911Z,80.45
2019-02-09T02:45:30.255Z,80.78
2019-02-09T02:47:37.700Z,80.95
2019-02-09T02:49:45.058Z,80.88
2019-02-09T02:51:52.631Z,80.87
2019-02-09T02:54:00.191Z,80.69
2019-02-09T02:56:07.674Z,80.86
2019-02-09T02:58:14.959Z,80.90
2019-02-09T03:00:31.841Z,81.08
2019-02-09T03:02:33.869Z,80.86
2019-02-09T03:04:41.374Z,80.95
2019-02-09T03:06:48.848Z,81.00
2019-02-09T03:08:56.314Z,80.67
2019-02-09T03:11:03.773Z,80.58
2019-02-09T03:13:11.252Z,80.88
2019-02-09T03:15:24.468Z,80.86
2019-02-09T03:17:31.886Z,80.90
2019-02-09T03:19:39.103Z,80.82
2019-02-09T03:21:46.429Z,80.79
2019-02-09T03:23:53.908Z,81.03
2019-02-09T03:26:01.299Z,80.72
2019-02-09T03:28:08.906Z,80.68
2019-02-09T03:30:17.371Z,80.80
2019-02-09T03:32:24.844Z,80.54
2019-02-09T03:34:32.211Z,80.78
2019-02-09T03:36:39.664Z,80.67
2019-02-09T03:38:47.073Z,80.74
2019-02-09T03:40:54.545Z,80.88
2019-02-09T03:43:01.787Z,80.57
2019-02-09T03:45:12.971Z,80.71
2019-02-09T03:47:21.489Z,80.78
2019-02-09T03:49:28.947Z,80.62
2019-02-09T03:51:36.386Z,80.69
2019-02-09T03:53:43.794Z,80.57
2019-02-09T03:55:51.189Z,80.57
2019-02-09T03:57:58.560Z,80.51
2019-02-09T04:00:09.498Z,80.58
2019-02-09T04:02:16.944Z,80.41
2019-02-09T04:04:24.372Z,80.51
2019-02-09T04:06:31.772Z,80.53
2019-02-09T04:08:39.237Z,80.61
2019-02-09T04:10:46.680Z,80.79
2019-02-09T04:12:53.896Z,80.55
2019-02-09T04:15:01.175Z,80.58
2019-02-09T04:17:08.476Z,80.39
2019-02-09T04:19:15.986Z,80.57
2019-02-09T04:21:23.430Z,80.26
2019-02-09T04:23:30.878Z,80.50
2019-02-09T04:25:38.248Z,80.00
2019-02-09T04:27:45.755Z,80.19
2019-02-09T04:29:52.927Z,80.17
2019-02-09T04:32:00.317Z,79.99
2019-02-09T04:34:07.858Z,80.12
2019-02-09T04:36:15.308Z,80.07
2019-02-09T04:38:22.731Z,80.13
2019-02-09T04:40:33.767Z,79.84
2019-02-09T04:42:41.153Z,79.97
2019-02-09T04:44:48.487Z,80.23
2019-02-09T04:46:55.861Z,80.00
2019-02-09T04:49:03.285Z,80.00
2019-02-09T04:51:10.657Z,79.94
2019-02-09T04:53:17.950Z,79.59
2019-02-09T04:55:26.122Z,79.82
2019-02-09T04:57:33.530Z,79.72
2019-02-09T04:59:40.915Z,79.99
2019-02-09T05:01:48.295Z,80.05
2019-02-09T05:03:55.754Z,79.93
2019-02-09T05:06:03.158Z,79.96
2019-02-09T05:08:10.409Z,79.89
2019-02-09T05:10:18.501Z,79.88
2019-02-09T05:12:25.947Z,79.69
2019-02-09T05:14:33.310Z,79.83
2019-02-09T05:16:40.747Z,79.60
2019-02-09T05:18:48.055Z,79.81
2019-02-09T05:20:55.402Z,79.80
2019-02-09T05:23:02.639Z,79.87
2019-02-09T05:25:10.464Z,79.58
2019-02-09T05:27:18.087Z,79.91
2019-02-09T05:29:25.282Z,79.55
2019-02-09T05:31:32.742Z,79.70
2019-02-09T05:33:41.126Z,79.61
2019-02-09T05:35:48.668Z,79.62
2019-02-09T05:37:55.951Z,79.50
2019-02-09T05:40:03.468Z,79.37
2019-02-09T05:42:10.835Z,79.48
2019-02-09T05:44:18.310Z,79.34
2019-02-09T05:46:25.607Z,79.28
2019-02-09T05:48:33.083Z,79.55
2019-02-09T05:50:40.542Z,78.94
2019-02-09T05:52:48.005Z,79.49
2019-02-09T05:54:55.449Z,79.20
2019-02-09T05:57:02.930Z,79.23
2019-02-09T05:59:10.242Z,79.26
2019-02-09T06:01:17.831Z,79.47
2019-02-09T06:03:25.271Z,79.44
2019-02-09T06:05:32.736Z,79.36
2019-02-09T06:07:40.246Z,79.44
2019-02-09T06:09:47.630Z,79.35
2019-02-09T06:11:54.944Z,78.99
2019-02-09T06:14:02.414Z,79.28
2019-02-09T06:16:09.705Z,79.17
2019-02-09T06:18:17.179Z,79.34
2019-02-09T06:20:26.085Z,78.79
2019-02-09T06:22:33.474Z,79.25
2019-02-09T06:24:40.888Z,79.02
2019-02-09T06:26:48.363Z,78.96
2019-02-09T06:28:55.676Z,79.11
2019-02-09T06:31:02.966Z,78.94
2019-02-09T06:33:10.238Z,78.90
2019-02-09T06:35:17.520Z,78.74
2019-02-09T06:37:24.854Z,78.85
2019-02-09T06:39:32.180Z,78.80
2019-02-09T06:41:39.619Z,78.63
2019-02-09T06:43:47.122Z,78.90
2019-02-09T06:45:54.465Z,78.78
2019-02-09T06:48:39.301Z,78.74
2019-02-09T06:50:46.759Z,78.92
2019-02-09T06:52:54.094Z,78.80
2019-02-09T06:55:01.671Z,78.67
2019-02-09T06:57:08.998Z,78.72
2019-02-09T06:59:16.445Z,78.49
2019-02-09T07:01:23.803Z,78.40
2019-02-09T07:03:31.345Z,78.10
2019-02-09T07:05:38.890Z,78.32
2019-02-09T07:07:46.422Z,78.03
2019-02-09T07:09:53.712Z,78.37
2019-02-09T07:12:01.140Z,78.29
2019-02-09T07:14:08.589Z,78.13
2019-02-09T07:16:15.996Z,78.24
2019-02-09T07:18:23.414Z,78.20
2019-02-09T07:20:30.677Z,78.12
2019-02-09T07:22:37.977Z,77.98
2019-02-09T07:24:45.422Z,77.74
2019-02-09T07:26:52.640Z,77.62
2019-02-09T07:29:00.113Z,77.67
2019-02-09T07:31:07.573Z,77.47
2019-02-09T07:33:15.027Z,77.52
2019-02-09T07:35:22.467Z,77.55
2019-02-09T07:37:29.772Z,77.14
2019-02-09T07:39:37.220Z,77.04
2019-02-09T07:41:44.329Z,76.88
2019-02-09T07:43:51.701Z,76.56
2019-02-09T07:45:58.896Z,76.46
2019-02-09T07:48:06.500Z,76.35
2019-02-09T07:50:15.777Z,76.21
2019-02-09T07:52:23.069Z,76.21
2019-02-09T07:54:30.556Z,76.04
2019-02-09T07:56:37.783Z,75.79
2019-02-09T07:58:45.050Z,75.67
2019-02-09T08:00:52.394Z,75.58
2019-02-09T08:02:59.610Z,75.24
2019-02-09T08:05:07.237Z,75.39
2019-02-09T08:07:14.879Z,75.12
2019-02-09T08:09:22.220Z,74.66
2019-02-09T08:11:29.418Z,74.50
2019-02-09T08:13:36.920Z,73.67
2019-02-09T08:15:44.222Z,73.13
2019-02-09T08:17:51.707Z,72.64
2019-02-09T08:19:59.290Z,72.58
2019-02-09T08:22:06.676Z,72.04
2019-02-09T08:24:13.901Z,71.98
2019-02-09T08:26:21.275Z,72.29
2019-02-09T08:28:28.516Z,72.30
2019-02-09T08:30:42.167Z,72.30
2019-02-09T08:32:49.467Z,72.35
2019-02-09T08:34:56.984Z,72.59
2019-02-09T08:37:04.701Z,72.42
2019-02-09T08:39:12.175Z,71.93
2019-02-09T08:41:19.349Z,71.98
2019-02-09T08:43:26.595Z,72.35
2019-02-09T08:45:34.133Z,72.01
2019-02-09T08:47:41.430Z,72.08
2019-02-09T08:49:48.801Z,72.20
2019-02-09T08:51:56.474Z,71.89
2019-02-09T08:54:03.830Z,71.54
2019-02-09T08:56:11.188Z,71.19
2019-02-09T08:58:18.661Z,71.41
2019-02-09T09:00:28.193Z,70.87
2019-02-09T09:02:35.508Z,70.76
2019-02-09T09:04:42.703Z,71.04
2019-02-09T09:06:50.175Z,70.60
2019-02-09T09:08:57.506Z,70.58
2019-02-09T09:11:04.807Z,71.34
2019-02-09T09:13:12.126Z,71.06
2019-02-09T09:15:33.260Z,70.97
2019-02-09T09:17:40.613Z,70.27
2019-02-09T09:19:47.967Z,70.00
2019-02-09T09:21:55.250Z,70.00
2019-02-09T09:24:02.572Z,70.06
2019-02-09T09:26:10.090Z,69.50
2019-02-09T09:28:17.360Z,68.67
2019-02-09T09:30:26.168Z,68.53
2019-02-09T09:32:33.768Z,68.08
2019-02-09T09:34:41.110Z,67.60
2019-02-09T09:36:48.846Z,67.16
2019-02-09T09:38:56.509Z,67.55
2019-02-09T09:41:03.890Z,67.28
2019-02-09T09:43:11.435Z,66.88
2019-02-09T09:45:22.654Z,66.61
2019-02-09T09:47:30.076Z,67.40
2019-02-09T09:49:37.511Z,66.58
2019-02-09T09:51:44.926Z,66.02
2019-02-09T09:53:52.214Z,66.54
2019-02-09T09:55:59.791Z,66.09
2019-02-09T09:58:07.388Z,66.32
2019-02-09T10:00:16.626Z,65.09
2019-02-09T10:02:23.903Z,64.92
2019-02-09T10:04:31.218Z,65.05
2019-02-09T10:06:38.354Z,64.95
2019-02-09T10:08:45.867Z,65.36
2019-02-09T10:11:26.202Z,65.93
2019-02-09T10:13:25.627Z,65.35
2019-02-09T10:15:33.272Z,64.48
2019-02-09T10:17:40.784Z,64.62
2019-02-09T10:20:01.097Z,64.84
2019-02-09T10:22:09.028Z,65.04
2019-02-09T10:24:16.447Z,64.43
2019-02-09T10:26:32.770Z,64.87
2019-02-09T10:28:40.543Z,64.20
2019-02-09T10:30:49.795Z,64.35
2019-02-09T10:32:57.191Z,63.90
2019-02-09T10:35:04.668Z,64.34
2019-02-09T10:37:12.118Z,64.25
2019-02-09T10:39:19.553Z,64.29
2019-02-09T10:41:27.170Z,64.03
2019-02-09T10:43:35.163Z,63.66
2019-02-09T10:45:43.243Z,63.53
2019-02-09T10:47:50.913Z,63.28
2019-02-09T10:50:00.678Z,63.42
2019-02-09T10:52:11.620Z,63.27
2019-02-09T10:54:24.021Z,63.32
2019-02-09T10:56:35.665Z,63.32
2019-02-09T10:58:44.181Z,63.00
2019-02-09T11:01:37.513Z,63.25
2019-02-09T11:03:47.001Z,62.93
2019-02-09T11:05:56.153Z,62.62
2019-02-09T11:08:05.286Z,62.21
2019-02-09T11:10:15.150Z,62.37
2019-02-09T11:12:24.147Z,62.51
2019-02-09T11:14:35.008Z,61.91
2019-02-09T11:16:44.777Z,61.68
2019-02-09T11:18:54.966Z,61.11
2019-02-09T11:21:04.710Z,62.12
2019-02-09T11:23:15.261Z,61.76
2019-02-09T11:25:23.044Z,61.54
2019-02-09T11:27:30.655Z,61.40
2019-02-09T11:29:38.169Z,60.63
2019-02-09T11:31:46.168Z,60.48
2019-02-09T11:33:53.661Z,60.91
2019-02-09T11:36:01.218Z,60.41
2019-02-09T11:38:08.705Z,60.87
2019-02-09T11:40:17.503Z,60.91
2019-02-09T11:42:26.438Z,60.81
2019-02-09T11:44:40.863Z,61.10
2019-02-09T11:46:43.267Z,60.64
2019-02-09T11:48:50.704Z,60.99
2019-02-09T11:50:59.102Z,61.00
2019-02-09T11:53:07.351Z,60.40
2019-02-09T11:55:15.955Z,60.89
2019-02-09T11:57:23.535Z,60.41
2019-02-09T11:59:31.148Z,60.85
2019-02-09T12:01:38.690Z,60.00
2019-02-09T12:03:46.122Z,60.57
2019-02-09T12:05:53.560Z,59.93
2019-02-09T12:08:01.175Z,59.96
2019-02-09T12:10:09.454Z,60.57
2019-02-09T12:12:16.670Z,59.44
2019-02-09T12:14:24.066Z,59.12
2019-02-09T12:16:31.506Z,59.12
2019-02-09T12:18:38.816Z,59.30
2019-02-09T12:20:46.244Z,58.46
2019-02-09T12:22:53.425Z,58.44
2019-02-09T12:25:00.731Z,58.76
2019-02-09T12:27:08.257Z,58.27
2019-02-09T12:29:15.738Z,58.84
2019-02-09T12:31:23.145Z,59.18
2019-02-09T12:33:30.633Z,58.22
2019-02-09T12:35:37.966Z,58.46
2019-02-09T12:37:45.452Z,58.82
2019-02-09T12:39:52.876Z,57.59
2019-02-09T12:42:00.526Z,58.14
2019-02-09T12:44:07.933Z,57.53
2019-02-09T12:46:18.824Z,58.03
2019-02-09T12:48:26.241Z,57.82
2019-02-09T12:50:35.246Z,57.92
2019-02-09T12:52:42.762Z,57.81
2019-02-09T12:54:50.171Z,57.77
2019-02-09T12:56:57.639Z,58.57
2019-02-09T12:59:05.148Z,58.20
2019-02-09T13:01:12.651Z,57.69
2019-02-09T13:03:31.350Z,57.71
2019-02-09T13:05:38.991Z,57.66
2019-02-09T13:07:46.501Z,57.79
2019-02-09T13:09:53.975Z,58.16
2019-02-09T13:12:01.520Z,57.65
2019-02-09T13:14:09.112Z,57.97
2019-02-09T13:16:16.723Z,58.05
2019-02-09T13:18:24.310Z,58.08
2019-02-09T13:20:31.482Z,58.11
2019-02-09T13:22:39.235Z,58.43
2019-02-09T13:24:46.773Z,58.10
2019-02-09T13:26:54.173Z,58.44
2019-02-09T13:29:01.691Z,59.14
2019-02-09T13:31:08.785Z,60.38
2019-02-09T13:33:16.308Z,61.98
2019-02-09T13:35:23.772Z,62.04
2019-02-09T13:37:31.202Z,63.12
2019-02-09T13:39:38.573Z,64.33
2019-02-09T13:41:45.774Z,65.80
2019-02-09T13:43:53.475Z,66.74
2019-02-09T13:46:00.831Z,67.68
2019-02-09T13:48:08.353Z,68.79
2019-02-09T13:50:15.922Z,70.07
2019-02-09T13:52:23.386Z,70.04
2019-02-09T13:54:30.844Z,70.54
2019-02-09T13:56:38.320Z,71.32
2019-02-09T13:58:45.811Z,71.21
2019-02-09T14:00:53.205Z,71.36
2019-02-09T14:03:00.693Z,71.83
2019-02-09T14:05:08.706Z,71.78
2019-02-09T14:07:16.477Z,71.84
2019-02-09T14:09:24.208Z,71.85
2019-02-09T14:11:31.774Z,71.54
2019-02-09T14:13:39.224Z,71.77
2019-02-09T14:15:46.772Z,71.37
2019-02-09T14:17:54.094Z,70.75
2019-02-09T14:20:01.864Z,71.22
2019-02-09T14:22:09.303Z,71.24
2019-02-09T14:24:16.759Z,71.10
2019-02-09T14:26:24.212Z,71.19
2019-02-09T14:28:31.710Z,70.47
2019-02-09T14:30:39.242Z,70.34
2019-02-09T14:32:46.890Z,70.64
2019-02-09T14:34:54.271Z,69.98
2019-02-09T14:37:01.641Z,70.01
2019-02-09T14:39:12.747Z,70.31
2019-02-09T14:41:20.010Z,69.83
2019-02-09T14:43:27.522Z,69.60
2019-02-09T14:45:41.080Z,69.67
2019-02-09T14:47:48.910Z,69.23
2019-02-09T14:49:56.572Z,69.05
2019-02-09T14:52:04.780Z,69.21
2019-02-09T14:54:13.012Z,68.68
2019-02-09T14:56:20.613Z,68.99
2019-02-09T14:58:28.687Z,68.81
2019-02-09T15:00:59.165Z,68.32
2019-02-09T15:03:08.337Z,68.03
2019-02-09T15:05:16.314Z,67.71
2019-02-09T15:07:24.021Z,67.46
2019-02-09T15:09:31.485Z,67.08
2019-02-09T15:11:38.904Z,67.47
2019-02-09T15:13:46.425Z,67.34
2019-02-09T15:16:14.667Z,67.26
2019-02-09T15:18:22.146Z,67.16
2019-02-09T15:20:33.905Z,67.38
2019-02-09T15:22:41.660Z,67.51
2019-02-09T15:24:49.375Z,67.55
2019-02-09T15:26:57.057Z,67.66
2019-02-09T15:29:04.579Z,67.67
2019-02-09T15:31:13.081Z,67.52
2019-02-09T15:33:20.768Z,67.36
2019-02-09T15:35:28.164Z,66.83
2019-02-09T15:37:35.851Z,67.04
2019-02-09T15:39:43.259Z,67.87
2019-02-09T15:41:50.765Z,67.37
2019-02-09T15:43:58.280Z,67.09
2019-02-09T15:46:05.840Z,67.17
2019-02-09T15:48:13.407Z,66.91
2019-02-09T15:50:20.834Z,67.30
2019-02-09T15:52:28.499Z,67.00
2019-02-09T15:54:36.384Z,66.54
2019-02-09T15:56:43.890Z,66.70
2019-02-09T15:58:51.354Z,66.65
2019-02-09T16:00:58.873Z,66.87
2019-02-09T16:03:07.084Z,66.97
2019-02-09T16:05:14.816Z,67.18
2019-02-09T16:07:22.243Z,67.24
2019-02-09T16:09:30.151Z,67.09
2019-02-09T16:11:37.695Z,67.04
2019-02-09T16:13:45.973Z,67.16
2019-02-09T16:15:53.609Z,67.34
2019-02-09T16:18:01.496Z,66.97
2019-02-09T16:20:10.999Z,67.09
2019-02-09T16:22:18.932Z,67.33
2019-02-09T16:24:26.629Z,67.48
2019-02-09T16:26:34.216Z,67.69
2019-02-09T16:28:41.685Z,67.69
2019-02-09T16:30:49.295Z,67.54
2019-02-09T16:32:56.893Z,67.84
2019-02-09T16:35:04.451Z,68.07
2019-02-09T16:37:12.035Z,68.22
2019-02-09T16:39:19.592Z,68.29
2019-02-09T16:41:27.066Z,68.33
2019-02-09T16:43:34.763Z,68.51
2019-02-09T16:45:42.112Z,68.21
2019-02-09T16:47:50.367Z,68.26
2019-02-09T16:49:57.934Z,68.06
2019-02-09T16:52:05.634Z,68.17
2019-02-09T16:54:12.966Z,67.73
2019-02-09T16:56:20.847Z,67.61
2019-02-09T16:58:28.401Z,67.43
2019-02-09T17:00:41.308Z,67.65
2019-02-09T17:02:48.759Z,67.55
2019-02-09T17:04:56.390Z,67.28
2019-02-09T17:07:03.811Z,67.09
2019-02-09T17:09:11.658Z,66.78
2019-02-09T17:11:19.360Z,66.71
2019-02-09T17:13:26.877Z,66.54
2019-02-09T17:15:34.370Z,66.24
2019-02-09T17:17:41.958Z,65.99
2019-02-09T17:19:50.411Z,66.00
2019-02-09T17:21:58.021Z,66.04
2019-02-09T17:24:05.981Z,66.16
2019-02-09T17:26:15.021Z,65.65
2019-02-09T17:28:22.758Z,65.22
2019-02-09T17:30:30.993Z,65.34
2019-02-09T17:32:38.883Z,65.33
2019-02-09T17:34:46.505Z,64.87
2019-02-09T17:36:53.988Z,65.09
2019-02-09T17:39:01.826Z,65.21
2019-02-09T17:41:09.424Z,64.97
2019-02-09T17:43:17.037Z,64.99
2019-02-09T17:45:31.171Z,65.16
2019-02-09T17:47:38.851Z,64.85
2019-02-09T17:49:46.679Z,65.03
2019-02-09T17:51:54.440Z,65.39
2019-02-09T17:54:01.852Z,65.24
2019-02-09T17:56:09.538Z,65.13
2019-02-09T17:58:17.340Z,65.24
2019-02-09T18:00:48.487Z,65.02
2019-02-09T18:02:56.197Z,64.71
2019-02-09T18:05:03.724Z,64.51
2019-02-09T18:07:11.417Z,64.69
2019-02-09T18:09:18.986Z,64.92
2019-02-09T18:11:26.585Z,65.03
2019-02-09T18:13:34.010Z,64.81
2019-02-09T18:15:41.594Z,64.95
2019-02-09T18:17:49.046Z,64.74
2019-02-09T18:19:56.589Z,64.68
2019-02-09T18:22:04.070Z,64.93
2019-02-09T18:24:11.662Z,64.82
2019-02-09T18:26:19.108Z,64.94
2019-02-09T18:28:26.820Z,64.50
2019-02-09T18:30:34.193Z,64.52
2019-02-09T18:32:41.732Z,64.43
2019-02-09T18:34:55.874Z,64.79
2019-02-09T18:36:58.732Z,64.33
2019-02-09T18:39:10.852Z,64.39
2019-02-09T18:41:18.285Z,64.44
2019-02-09T18:43:25.844Z,64.86
2019-02-09T18:45:33.284Z,64.94
2019-02-09T18:47:40.804Z,64.94
2019-02-09T18:49:48.364Z,65.49
2019-02-09T18:51:55.973Z,65.36
2019-02-09T18:54:03.597Z,65.37
2019-02-09T18:56:11.064Z,65.99
2019-02-09T18:58:19.798Z,65.93
2019-02-09T19:00:29.905Z,65.80
2019-02-09T19:02:38.620Z,65.93
2019-02-09T19:04:46.589Z,66.02
2019-02-09T19:06:54.570Z,66.13
2019-02-09T19:09:02.194Z,66.25
2019-02-09T19:11:10.286Z,65.71
2019-02-09T19:13:18.095Z,65.77
2019-02-09T19:15:27.506Z,65.93
2019-02-09T19:17:35.402Z,66.06
2019-02-09T19:19:43.127Z,66.02
2019-02-09T19:21:50.646Z,66.23
2019-02-09T19:23:58.341Z,66.26
2019-02-09T19:26:05.843Z,66.40
2019-02-09T19:28:13.280Z,66.65
2019-02-09T19:30:22.417Z,66.83
2019-02-09T19:32:30.367Z,66.85
2019-02-09T19:34:37.931Z,67.08
2019-02-09T19:36:45.799Z,67.28
2019-02-09T19:38:53.309Z,67.37
2019-02-09T19:41:01.125Z,67.20
2019-02-09T19:43:08.629Z,67.34
2019-02-09T19:45:25.767Z,67.08
2019-02-09T19:47:33.471Z,67.28
2019-02-09T19:49:41.024Z,67.68
2019-02-09T19:51:48.593Z,67.53
2019-02-09T19:53:56.239Z,67.41
2019-02-09T19:56:03.969Z,66.97
2019-02-09T19:58:11.543Z,67.19
2019-02-09T20:00:26.018Z,67.18
2019-02-09T20:02:33.734Z,66.93
2019-02-09T20:04:41.411Z,67.25
2019-02-09T20:06:48.906Z,66.99
2019-02-09T20:08:58.062Z,67.21
2019-02-09T20:11:05.295Z,67.03
2019-02-09T20:13:13.051Z,67.14
2019-02-09T20:15:21.125Z,67.00
2019-02-09T20:17:28.922Z,67.01
2019-02-09T20:19:36.600Z,66.89
2019-02-09T20:21:44.434Z,67.06
2019-02-09T20:23:52.006Z,67.10
2019-02-09T20:25:59.489Z,67.26
2019-02-09T20:28:07.221Z,66.91
2019-02-09T20:30:24.359Z,67.11
2019-02-09T20:32:31.942Z,67.01
2019-02-09T20:34:39.677Z,67.07
2019-02-09T20:36:47.257Z,67.07
2019-02-09T20:38:54.891Z,67.15
2019-02-09T20:41:06.655Z,67.33
2019-02-09T20:43:16.578Z,67.19
2019-02-09T20:45:24.076Z,67.37
2019-02-09T20:47:31.747Z,67.49
2019-02-09T20:49:40.919Z,67.34
2019-02-09T20:51:48.511Z,67.36
2019-02-09T20:53:55.969Z,67.54
2019-02-09T20:56:03.329Z,67.47
2019-02-09T20:58:12.830Z,67.57
2019-02-09T21:00:22.227Z,67.54
2019-02-09T21:02:29.633Z,67.67
2019-02-09T21:04:37.145Z,67.83
2019-02-09T21:06:44.599Z,67.86
2019-02-09T21:08:52.609Z,67.77
2019-02-09T21:11:00.256Z,67.82
2019-02-09T21:13:08.374Z,67.70
2019-02-09T21:15:16.264Z,67.83
2019-02-09T21:17:23.895Z,67.82
2019-02-09T21:19:31.330Z,67.89
2019-02-09T21:21:38.693Z,67.76
2019-02-09T21:23:46.282Z,67.96
2019-02-09T21:25:53.547Z,68.10
2019-02-09T21:28:01.113Z,68.08
2019-02-09T21:30:09.774Z,68.29
2019-02-09T21:32:17.268Z,68.84
2019-02-09T21:34:24.830Z,68.41
2019-02-09T21:36:32.493Z,68.48
2019-02-09T21:38:40.043Z,68.48
2019-02-09T21:40:47.298Z,68.62
2019-02-09T21:42:55.943Z,68.99
2019-02-09T21:45:03.569Z,68.85
2019-02-09T21:47:11.331Z,68.79
2019-02-09T21:49:19.153Z,68.92
2019-02-09T21:51:26.625Z,69.14
2019-02-09T21:53:34.190Z,69.11
2019-02-09T21:55:42.288Z,69.08
2019-02-09T21:57:49.882Z,68.83
2019-02-09T21:59:57.402Z,68.89
2019-02-09T22:02:05.260Z,68.92
2019-02-09T22:04:13.391Z,69.15
2019-02-09T22:06:21.267Z,69.06
2019-02-09T22:08:28.906Z,69.15
2019-02-09T22:10:36.427Z,69.14
2019-02-09T22:12:44.417Z,69.40
2019-02-09T22:14:52.263Z,69.21
2019-02-09T22:17:00.154Z,69.30
2019-02-09T22:19:07.667Z,69.39
2019-02-09T22:21:15.146Z,69.22
2019-02-09T22:23:22.838Z,69.29
2019-02-09T22:25:30.209Z,69.33
2019-02-09T22:27:38.377Z,69.42
2019-02-09T22:29:46.783Z,69.49
2019-02-09T22:31:54.788Z,69.36
2019-02-09T22:34:02.546Z,69.27
2019-02-09T22:36:09.956Z,69.31
2019-02-09T22:38:17.540Z,69.11
2019-02-09T22:40:31.064Z,69.01
2019-02-09T22:42:38.758Z,69.24
2019-02-09T22:44:46.662Z,69.16
2019-02-09T22:46:55.542Z,69.08
2019-02-09T22:49:04.739Z,68.99
2019-02-09T22:51:12.445Z,69.30
2019-02-09T22:53:20.131Z,69.24
2019-02-09T22:55:28.119Z,69.60
2019-02-09T22:57:35.713Z,69.34
2019-02-09T22:59:43.681Z,69.58
2019-02-09T23:01:52.342Z,69.59
2019-02-09T23:04:28.151Z,69.69
2019-02-09T23:07:04.486Z,69.81
2019-02-09T23:09:22.466Z,69.73
2019-02-09T23:11:37.337Z,69.88
2019-02-09T23:13:55.021Z,70.16
2019-02-09T23:16:11.730Z,69.63
2019-02-09T23:18:19.738Z,69.80
2019-02-09T23:20:27.342Z,69.75
2019-02-09T23:22:34.812Z,69.67
2019-02-09T23:24:45.245Z,69.70
2019-02-09T23:26:52.792Z,69.86
2019-02-09T23:29:00.538Z,69.60
2019-02-09T23:31:08.225Z,69.34
2019-02-09T23:33:15.983Z,68.96
2019-02-09T23:35:23.339Z,68.87
2019-02-09T23:37:30.911Z,68.74
2019-02-09T23:39:38.552Z,68.63
2019-02-09T23:41:46.059Z,68.70
2019-02-09T23:43:53.647Z,68.11
2019-02-09T23:46:01.364Z,67.88
2019-02-09T23:48:08.818Z,67.86
2019-02-09T23:50:16.364Z,67.92
2019-02-09T23:52:23.993Z,68.14
2019-02-09T23:54:31.485Z,68.11
2019-02-09T23:56:38.943Z,68.19
2019-02-09T23:58:46.472Z,68.39
